Albert Lea, MN

2:57 PM CST on February 13, 2016 (GMT -0600)
4th Ave S, Albert Lea | | Change Station
CLOSE
Current Station
Personal Weather Station
Location: Albert Lea, MN
Elevation: 1214 ft
Nearby Weather Stations
Active Advisory: Winter Weather Advisory

Elev 1214 ft 43.64 °N, 93.38 °W | Updated 2 minutes ago

Scattered Clouds
Scattered Clouds
7.2 °F
Feels Like 7 °F
N
2.2
Wind Variable Wind from SSE

Today
High -- | Low -- °F
--% Chance of Precip.
Yesterday
High -- | Low -- °F
Precip. -- in
Pressure 30.45 in
Visibility 10.0 miles
Clouds Scattered Clouds 11000 ft
Windchill 7 °F
Dew Point -3 °F
Humidity 62%
Rainfall 0.00 in
Snow Depth Not available.
7:15 AM 5:40 PM
Waxing Crescent, 34% visible
METAR KAEL 132052Z AUTO 14006KT 10SM SCT110 M14/M21 A3045 RMK AO2
Pressure 30.45 in
Visibility 10.0 miles
Clouds Scattered Clouds 11000 ft
Windchill 7 °F
Dew Point -3 °F
Humidity 62%
Rainfall 0.00 in
Snow Depth Not available.
7:15 AM 5:40 PM
Waxing Crescent, 34% visible
METAR KAEL 132052Z AUTO 14006KT 10SM SCT110 M14/M21 A3045 RMK AO2

10-Day Weather Forecast

Almanac

Astronomy

Feb. 13, 2016 Rise Set
Actual Time
Civil Twilight
Nautical Twilight
Astronomical Twilight
Moon
Length of Visible Light
Length of Day
Tomorrow will be .
, % of the Moon is Illuminated

Today's Extremes

State Highs State Lows

Community

WunderPhotos

Upload Photos

1,892,666 photos uploaded!

WunderBlog® & News

Nearby

Air Quality

  Air Quality AQ Index Pollutant
Not available.

Snow Depth

Station Depth Elevation

Earthquake Activity

City Distance Mag. Time & Date
Minimum magnitude displayed is 2.5.

Coastal Water Temperatures

Place Temperature

Stations

Nearby Weather Stations

Station Location Temp. Windchill Dew Point Humidity Wind Precip. Elev Updated Type
                   

Watches & Warnings

Winter Weather Advisory
Issued: 1:45 PM CST Feb. 13, 2016 – National Weather Service

... Winter Weather Advisory remains in effect from 9 PM this
evening to noon CST Sunday...

* expect snow to develop between 9 PM and midnight and then
diminish around noon on Sunday.

* The heaviest snowfall rates will occur between midnight and 6
am Sunday.

* Total snow accumulations of 3 to 5 inches are expected.

* Look for reduced visibilities at times.

* Plan on slippery Road conditions.

Precautionary/preparedness actions...

A Winter Weather Advisory for snow means periods of snow will
cause primarily travel difficulties. Be prepared for snow covered
roads and limited visibilities... and use caution while driving.
The latest Road conditions for the state you are calling from can
be obtained by calling 5 1 1.